Información del aeropuerto LECO

Información de pista
Pista 03 Longitud 6358 ft Anchura 148 ft
Elevación 327 ft Umbral 0 ft Rumbo 31
Pista 21 Longitud 6358 ft Anchura 148 ft
Elevación 286 ft Umbral 0 ft Rumbo 211
Frecuencias del aeropuerto
Tipo APP Nombre SANTIAGO A Frecuencia 120.2 MHZ
Tipo GND Nombre GND Frecuencia 121.7 MHZ
Tipo TWR Nombre A Coruña T Frecuencia 118.3 MHZ
Radioayudas del aeropuerto
Tipo NDB Nombre La Coruna Frecuencia 401 KHZ
Tipo VOR-DME Nombre La Coruna Frecuencia 115100 KHZ
Información meteorológica del aeropuerto y NOTAM
ADDS - METARS form results

(1750 UTC 29 November 2021)
Data provider http://aviationweather.gov/metar/data/
 
METAR text: LECO 291730Z 22003KT 190V260 9999 FEW028 SCT040 11/08 Q1023 NOSIG
Conditions at: LECO (LA CORUNA/ALVEDR, ES) observed 1730 UTC 29 November 2021
Temperature: 11.0°C (52°F)
Dewpoint: 8.0°C (46°F) [RH = 82%]
Pressure (altimeter): 30.21 inches Hg (1023.0 mb)
Winds: from the SW (220 degrees) at 3 MPH (3 knots; 1.5 m/s)
Visibility: 6 or more miles (10+ km)
Ceiling: at least 12,000 feet AGL
Clouds: few clouds at 2800 feet AGL
scattered clouds at 4000 feet AGL
Weather: no significant weather observed at this time

METAR text: LECO 291700Z 25004KT 9999 SCT040 12/08 Q1023 NOSIG
Conditions at: LECO (LA CORUNA/ALVEDR, ES) observed 1700 UTC 29 November 2021
Temperature: 12.0°C (54°F)
Dewpoint: 8.0°C (46°F) [RH = 76%]
Pressure (altimeter): 30.21 inches Hg (1023.0 mb)
Winds: from the WSW (250 degrees) at 5 MPH (4 knots; 2.1 m/s)
Visibility: 6 or more miles (10+ km)
Ceiling: at least 12,000 feet AGL
Clouds: scattered clouds at 4000 feet AGL
Weather: no significant weather observed at this time

Forecast for: LECO (LA CORUNA/ALVEDR, ES)
Text: TAF LECO 291400Z 2915/3015 29005KT 9999 FEW010 BKN025 TX15/3014Z TN09/3006Z
Forecast period: 1500 UTC 29 November 2021 to 1500 UTC 30 November 2021
Forecast type: FROM: standard forecast or significant change
Winds: from the WNW (290 degrees) at 6 MPH (5 knots; 2.6 m/s)
Visibility: 6 or more miles (10+ km)
Ceiling: 2500 feet AGL
Clouds: few clouds at 1000 feet AGL
broken clouds at 2500 feet AGL
Weather: no significant weather forecast for this period
Text: PROB30
Forecast period: 1500 to 1800 UTC 29 November 2021
Forecast type: TEMPORARY: The following changes expected for less than half the time period
Visibility: 1.86 miles (2.99 km)
Ceiling: unknown
Clouds: missing
Weather: -RA  (light rain)
Text: TEMPO 2915/2918 3000 -RA
Forecast period: 0000 to 0800 UTC 30 November 2021
Forecast type: TEMPORARY: The following changes expected for less than half the time period
Visibility: 1.86 miles (2.99 km)
Ceiling: unknown
Clouds: missing
Weather: BR  (mist)